Data for 06/17/2007

Time Sea-Level Adjusted Pressure Absolute Pressure Temperature Relative Humidity Dew Point   
(mb) (inHg) (mb) (inHg) (C) (F) (%) (C) (F)
00:05 1013 29.91 842 24.86 14.6 58.2 77 10.7 51.3
00:10 1013 29.91 842 24.86 14.6 58.2 78 10.7 51.3
00:15 1013 29.91 842 24.86 14.6 58.2 78 10.8 51.4
00:20 1013 29.91 842 24.86 14.5 58.1 79 10.9 51.6
00:25 1013 29.91 842 24.86 14.1 57.4 81 10.9 51.6
00:30 1012 29.88 842 24.86 13.7 56.7 82 10.8 51.4
00:35 1012 29.88 842 24.86 13.5 56.3 83 10.6 51.2
00:40 1012 29.88 842 24.86 13.6 56.5 82 10.7 51.2
00:45 1013 29.91 842 24.86 13.7 56.6 83 10.8 51.5
00:50 1013 29.91 842 24.86 13.6 56.4 82 10.6 51
00:55 1013 29.91 842 24.86 13.8 56.9 81 10.6 51.1
01:00 1013 29.91 842 24.86 14 57.2 81 10.7 51.3
01:05 1013 29.91 842 24.86 14.1 57.4 80 10.7 51.3
01:10 1012 29.88 842 24.86 14.2 57.6 79 10.7 51.2
01:15 1012 29.88 841 24.83 14.3 57.8 79 10.7 51.3
01:20 1012 29.88 842 24.86 14.1 57.4 80 10.8 51.5
01:25 1013 29.91 842 24.86 14 57.2 81 10.7 51.3
01:30 1013 29.91 842 24.86 13.9 57.1 80 10.7 51.2
01:35 1013 29.91 842 24.86 14.1 57.4 80 10.7 51.3
01:40 1012 29.88 842 24.86 14.2 57.6 80 10.8 51.5
01:45 1013 29.91 842 24.86 14.2 57.6 81 11 51.7
01:50 1014 29.94 843 24.89 14 57.1 86 11.6 52.9
01:55 1014 29.94 844 24.92 13.4 56.1 89 11.6 52.9
02:00 1014 29.94 843 24.89 13.1 55.6 89 11.3 52.3
02:05 1013 29.91 843 24.89 13 55.3 88 11 51.8
02:10 1013 29.91 843 24.89 12.9 55.1 84 10.3 50.5
02:15 1013 29.91 843 24.89 12.9 55.3 85 10.5 50.8
02:20 1014 29.94 843 24.89 12.8 55.1 85 10.3 50.5
02:25 1013 29.91 843 24.89 12.8 55 84 10.1 50.2
02:30 1013 29.91 842 24.86 12.8 55 83 9.9 49.9
02:35 1013 29.91 842 24.86 12.9 55.2 84 10.3 50.5
02:40 1013 29.91 842 24.86 12.7 54.9 85 10.3 50.5
02:45 1013 29.91 842 24.86 12.6 54.6 86 10.2 50.4
02:50 1013 29.91 842 24.86 12.5 54.4 85 10 50
02:55 1013 29.91 842 24.86 12.4 54.2 85 9.8 49.7
03:00 1013 29.91 842 24.86 12.4 54.3 85 10.1 50.1
03:05 1013 29.91 843 24.89 12.5 54.5 85 10.1 50.1
03:10 1013 29.91 842 24.86 12.5 54.5 85 10 50
03:15 1013 29.91 842 24.86 12.4 54.3 85 9.9 49.8
03:20 1013 29.91 842 24.86 12.4 54.3 83 9.6 49.2
03:25 1013 29.91 842 24.86 12.5 54.5 84 9.9 49.7
03:30 1013 29.91 842 24.86 12.5 54.5 84 9.9 49.7
03:35 1012 29.88 842 24.86 12.2 54 87 10.1 50.1
03:40 1012 29.88 842 24.86 12 53.6 87 9.9 49.8
03:45 1012 29.88 842 24.86 12.1 53.7 87 10 49.9
03:50 1013 29.91 842 24.86 12 53.6 88 10.1 50.2
03:55 1013 29.91 842 24.86 12 53.5 89 10.2 50.3
04:00 1013 29.91 842 24.86 12 53.7 89 10.3 50.6
04:05 1013 29.91 842 24.86 11.9 53.3 90 10.4 50.6
04:10 1013 29.91 842 24.86 11.7 53 91 10.3 50.6
04:15 1013 29.91 842 24.86 11.7 53.1 92 10.4 50.8
04:20 1013 29.91 842 24.86 11.8 53.2 92 10.5 50.8
04:25 1013 29.91 842 24.86 11.7 53.1 91 10.3 50.5
04:30 1013 29.91 842 24.86 11.6 52.9 91 10.3 50.5
04:35 1013 29.91 842 24.86 11.6 52.9 91 10.3 50.5
04:40 1013 29.91 842 24.86 11.6 52.8 92 10.3 50.5
04:45 1012 29.88 842 24.86 11.5 52.7 92 10.3 50.5
04:50 1013 29.91 842 24.86 11.3 52.4 93 10.2 50.4
04:55 1013 29.91 842 24.86 11.2 52.2 93 10.2 50.3
05:00 1013 29.91 842 24.86 11.3 52.3 94 10.3 50.5
05:05 1013 29.91 842 24.86 11.3 52.3 94 10.3 50.6
05:10 1013 29.91 842 24.86 11.2 52.1 94 10.3 50.5
05:15 1013 29.91 842 24.86 11.2 52.2 95 10.4 50.7
05:20 1013 29.91 842 24.86 11.3 52.4 95 10.5 50.9
05:25 1013 29.91 842 24.86 11.3 52.3 95 10.5 51
05:30 1013 29.91 842 24.86 11.2 52.2 95 10.5 50.8
05:35 1013 29.91 842 24.86 11.2 52.1 95 10.4 50.8
05:40 1013 29.91 842 24.86 11.1 51.9 96 10.4 50.7
05:45 1013 29.91 842 24.86 11.1 52 96 10.5 50.8
05:50 1013 29.91 842 24.86 11 51.9 96 10.4 50.8
05:55 1013 29.91 842 24.86 11.1 52 96 10.5 50.8
06:00 1013 29.91 842 24.86 11.1 52 96 10.5 50.9
06:05 1013 29.91 842 24.86 11.2 52.1 96 10.5 50.9
06:10 1013 29.91 842 24.86 11.2 52.1 95 10.5 50.9
06:15 1013 29.91 842 24.86 11 51.7 94 10.1 50.2
06:20 1014 29.94 843 24.89 10 50 84 7.5 45.4
06:25 1014 29.94 843 24.89 8.6 47.5 88 6.7 44.1
06:30 1013 29.91 843 24.89 8.2 46.7 89 6.5 43.6
06:35 1013 29.91 843 24.89 8.2 46.8 89 6.5 43.6
06:40 1013 29.91 843 24.89 8.4 47.1 89 6.6 43.9
06:45 1013 29.91 843 24.89 8.6 47.4 89 6.9 44.4
06:50 1013 29.91 843 24.89 8.7 47.6 89 7 44.6
06:55 1014 29.94 843 24.89 8.7 47.6 89 6.9 44.4
07:00 1014 29.94 843 24.89 8.7 47.6 90 7.1 44.7
07:05 1014 29.94 843 24.89 8.8 47.8 91 7.3 45.1
07:10 1014 29.94 843 24.89 8.9 47.9 89 7.1 44.9
07:15 1014 29.94 843 24.89 8.7 47.7 91 7.3 45.2
07:20 1014 29.94 843 24.89 8.4 47.1 93 7.3 45.1
07:25 1014 29.94 843 24.89 8.2 46.8 92 7 44.6
07:30 1014 29.94 843 24.89 8.2 46.7 92 6.9 44.4
07:35 1014 29.94 843 24.89 8.3 46.9 90 6.8 44.3
07:40 1014 29.94 843 24.89 8.4 47.2 89 6.8 44.2
07:45 1014 29.94 843 24.89 8.7 47.7 88 6.8 44.2
07:50 1014 29.94 843 24.89 8.9 48 85 6.6 43.9
07:55 1014 29.94 843 24.89 9 48.2 86 6.9 44.3
08:00 1014 29.94 844 24.92 9.2 48.6 84 6.6 43.9
08:05 1014 29.94 844 24.92 9.5 49.2 84 6.9 44.4
08:10 1014 29.94 844 24.92 9.7 49.5 81 6.7 44
08:15 1014 29.94 844 24.92 9.9 49.7 82 7 44.6
08:20 1015 29.97 844 24.92 10 50 79 6.6 44
08:25 1015 29.97 844 24.92 10.1 50.3 80 6.8 44.2
08:30 1015 29.97 844 24.92 10.1 50.2 81 7 44.5
08:35 1015 29.97 844 24.92 10.5 51 78 6.8 44.2
08:40 1015 29.97 844 24.92 10.9 51.5 78 7.1 44.8
08:45 1014 29.94 844 24.92 10.9 51.6 78 7.3 45.1
08:50 1015 29.97 844 24.92 11.1 52.1 79 7.6 45.6
08:55 1014 29.94 844 24.92 11.8 53.3 75 7.6 45.7
09:00 1014 29.94 844 24.92 12.1 53.8 71 7 44.7
09:05 1014 29.94 844 24.92 12.2 53.9 72 7.2 45
09:10 1014 29.94 844 24.92 12.6 54.6 71 7.4 45.4
09:15 1014 29.94 844 24.92 12.7 54.9 66 6.5 43.7
09:20 1014 29.94 844 24.92 13.3 55.9 63 6.4 43.6
09:25 1014 29.94 844 24.92 13.6 56.4 59 5.8 42.4
09:30 1014 29.94 844 24.92 13.7 56.7 59 6 42.8
09:35 1014 29.94 844 24.92 14 57.1 56 5.3 41.6
09:40 1014 29.94 844 24.92 13.9 57.1 59 6.2 43.2
09:45 1014 29.94 844 24.92 13.3 55.9 59 5.4 41.7
09:50 1014 29.94 844 24.92 13.3 56 58 5.2 41.4
09:55 1014 29.94 844 24.92 13.1 55.5 53 3.8 38.9
10:00 1014 29.94 844 24.92 13 55.4 54 4.1 39.3
10:05 1014 29.94 844 24.92 14.1 57.3 52 4.3 39.8
10:10 1014 29.94 843 24.89 13.9 57 53 4.5 40.1
10:15 1014 29.94 843 24.89 14.2 57.6 51 4.4 39.9
10:20 1014 29.94 843 24.89 14 57.2 49 3.4 38.1
10:25 1014 29.94 843 24.89 14.4 58 49 3.9 39.1
10:30 1014 29.94 843 24.89 14.8 58.6 48 3.9 39
10:35 1014 29.94 843 24.89 14.6 58.2 46 3 37.5
10:40 1014 29.94 843 24.89 15.3 59.5 44 3.3 38
10:45 1014 29.94 843 24.89 15.4 59.7 44 3.4 38
10:50 1014 29.94 843 24.89 15.5 59.9 43 3.1 37.5
10:55 1014 29.94 843 24.89 15.1 59.2 45 3.5 38.3
11:00 1014 29.94 843 24.89 15.1 59.1 45 3.5 38.2
11:05 1014 29.94 843 24.89 15.2 59.4 44 3.2 37.7
11:10 1014 29.94 843 24.89 14.8 58.6 47 3.7 38.6
11:15 1014 29.94 843 24.89 15.4 59.6 44 3.4 38.1
11:20 1014 29.94 843 24.89 14.5 58.2 46 3.2 37.8
11:25 1014 29.94 843 24.89 14.6 58.4 47 3.5 38.2
11:30 1014 29.94 843 24.89 15.5 59.9 45 3.7 38.7
11:35 1014 29.94 843 24.89 15.2 59.3 47 3.9 39.1
11:40 1014 29.94 843 24.89 14.7 58.5 45 3 37.4
11:45 1014 29.94 843 24.89 14.3 57.7 47 3.1 37.7
11:50 1014 29.94 843 24.89 14.7 58.4 46 3.3 37.9
11:55 1014 29.94 843 24.89 14.5 58 47 3.2 37.8
12:00 1014 29.94 843 24.89 14.9 58.9 44 2.8 37
12:05 1014 29.94 843 24.89 15.1 59.2 43 2.8 37
12:10 1014 29.94 843 24.89 15.3 59.5 43 3 37.4
12:15 1014 29.94 843 24.89 15.9 60.6 42 3 37.3
12:20 1014 29.94 843 24.89 15.3 59.5 41 2.2 35.9
12:25 1014 29.94 843 24.89 14.8 58.6 43 2.3 36.1
12:30 1014 29.94 843 24.89 14.4 58 41 1.4 34.5
12:35 1014 29.94 843 24.89 14.9 58.8 38 1 33.7
12:40 1014 29.94 843 24.89 15.1 59.2 38 0.9 33.6
12:45 1014 29.94 843 24.89 15.5 59.9 35 0.3 32.6
12:50 1014 29.94 843 24.89 15.4 59.8 38 1.3 34.4
12:55 1014 29.94 843 24.89 15.4 59.7 35 0.3 32.6
13:00 1014 29.94 843 24.89 15.4 59.7 35 0.2 32.3
13:05 1014 29.94 843 24.89 15.5 59.9 35 0.2 32.4
13:10 1014 29.94 843 24.89 15.7 60.3 37 1.1 34
13:15 1014 29.94 843 24.89 15.6 60 37 1.2 34.2
13:20 1014 29.94 843 24.89 15.6 60.1 34 0.1 32.1
13:25 1014 29.94 843 24.89 15.7 60.3 34 0.1 32.1
13:30 1014 29.94 843 24.89 16.1 61.1 32 -0.3 31.4
13:35 1014 29.94 843 24.89 16.1 61 32 -0.4 31.2
13:40 1014 29.94 843 24.89 16.2 61.2 33 -0.1 31.8
13:45 1014 29.94 843 24.89 16.5 61.7 33 0.2 32.3
13:50 1014 29.94 843 24.89 16.8 62.2 31 -0.2 31.6
13:55 1014 29.94 843 24.89 16.7 62 28 -1.9 28.6
14:00 1014 29.94 843 24.89 16.3 61.4 30 -1.2 29.9
14:05 1014 29.94 843 24.89 16.9 62.4 28 -1.5 29.3
14:10 1014 29.94 843 24.89 17.3 63.1 28 -1.2 29.8
14:15 1014 29.94 843 24.89 17.2 63 27 -1.6 29.1
14:20 1014 29.94 843 24.89 16.9 62.4 27 -2.3 27.9
14:25 1014 29.94 843 24.89 16.6 61.9 28 -1.9 28.6
14:30 1014 29.94 843 24.89 16.8 62.3 27 -2.2 28
14:35 1014 29.94 843 24.89 17 62.7 27 -1.8 28.8
14:40 1014 29.94 843 24.89 17.2 63 28 -1.2 29.8
14:45 1014 29.94 843 24.89 17.3 63.1 28 -1.5 29.4
14:50 1014 29.94 843 24.89 16.9 62.5 28 -1.5 29.2
14:55 1014 29.94 843 24.89 16.3 61.3 28 -2.1 28.2
15:00 1014 29.94 843 24.89 16.7 62.1 28 -1.6 29
15:05 1014 29.94 843 24.89 16.7 62 29 -1.6 29.2
15:10 1014 29.94 843 24.89 16.7 62 26 -2.9 26.8
15:15 1014 29.94 843 24.89 16.7 62.1 27 -2.4 27.7
15:20 1014 29.94 843 24.89 16.8 62.2 27 -2.4 27.7
15:25 1014 29.94 843 24.89 17.1 62.7 26 -2.4 27.7
15:30 1014 29.94 843 24.89 17.1 62.8 28 -1.6 29
15:35 1014 29.94 843 24.89 17 62.6 27 -2 28.4
15:40 1013 29.91 843 24.89 17.1 62.8 28 -1.6 29.1
15:45 1014 29.94 843 24.89 17.2 63 26 -2.2 28.1
15:50 1014 29.94 843 24.89 17.4 63.3 28 -1.3 29.6
15:55 1013 29.91 843 24.89 16.8 62.2 27 -2.2 28.1
16:00 1013 29.91 843 24.89 17.3 63.1 25 -2.6 27.3
16:05 1013 29.91 843 24.89 17.6 63.7 27 -1.7 29
16:10 1013 29.91 843 24.89 17.1 62.7 27 -1.9 28.5
16:15 1013 29.91 843 24.89 17 62.6 27 -1.8 28.7
16:20 1013 29.91 843 24.89 17.1 62.9 27 -1.9 28.6
16:25 1013 29.91 843 24.89 17.2 63 26 -2.3 27.8
16:30 1013 29.91 843 24.89 17.2 63 27 -1.7 28.9
16:35 1013 29.91 843 24.89 17.7 63.8 26 -1.9 28.6
16:40 1013 29.91 843 24.89 17.5 63.5 25 -2.8 27
16:45 1013 29.91 843 24.89 17.4 63.3 27 -1.9 28.6
16:50 1014 29.94 843 24.89 17.8 64 26 -2.1 28.2
16:55 1014 29.94 843 24.89 17.5 63.6 26 -2.1 28.1
17:00 1014 29.94 843 24.89 16.8 62.2 28 -1.6 29.1
17:05 1014 29.94 843 24.89 16.2 61.1 28 -2.4 27.7
17:10 1014 29.94 843 24.89 15.9 60.6 29 -2.2 28
17:15 1014 29.94 843 24.89 15.9 60.6 29 -2.2 28
17:20 1014 29.94 843 24.89 15.9 60.7 29 -2 28.3
17:25 1014 29.94 843 24.89 15.9 60.5 29 -2.1 28.1
17:30 1014 29.94 843 24.89 15.5 60 29 -2.2 28
17:35 1014 29.94 843 24.89 15.6 60.1 30 -2 28.4
17:40 1014 29.94 843 24.89 15.7 60.2 31 -1.5 29.4
17:45 1014 29.94 843 24.89 15.4 59.6 31 -1.4 29.5
17:50 1014 29.94 843 24.89 15.2 59.3 32 -1.5 29.3
17:55 1014 29.94 843 24.89 15.2 59.3 33 -1 30.2
18:00 1014 29.94 843 24.89 14.8 58.7 31 -2 28.4
18:05 1014 29.94 843 24.89 14.7 58.5 33 -1.5 29.3
18:10 1014 29.94 843 24.89 14.8 58.6 33 -1.1 30
18:15 1014 29.94 843 24.89 14.9 58.8 33 -1.2 29.8
18:20 1014 29.94 843 24.89 14.9 58.8 33 -1.3 29.7
18:25 1014 29.94 843 24.89 14.7 58.5 33 -1.2 29.8
18:30 1014 29.94 843 24.89 14.6 58.3 33 -1.3 29.7
18:35 1014 29.94 843 24.89 14.5 58 34 -1.3 29.7
18:40 1014 29.94 844 24.92 14.4 57.9 35 -0.9 30.4
18:45 1014 29.94 844 24.92 14.3 57.8 37 -0.1 31.9
18:50 1014 29.94 843 24.89 14.2 57.6 35 -0.8 30.6
18:55 1014 29.94 843 24.89 14 57.2 36 -0.9 30.4
19:00 1014 29.94 843 24.89 14 57.2 35 -1 30.2
19:05 1014 29.94 844 24.92 13.9 57 35 -1.1 30
19:10 1014 29.94 844 24.92 13.8 56.9 35 -1.3 29.7
19:15 1014 29.94 844 24.92 13.8 56.8 37 -0.8 30.6
19:20 1014 29.94 844 24.92 13.7 56.7 37 -0.7 30.7
19:25 1015 29.97 844 24.92 13.6 56.5 36 -0.9 30.3
19:30 1015 29.97 844 24.92 13.7 56.6 37 -0.5 31.1
19:35 1015 29.97 844 24.92 13.6 56.6 39 -0.2 31.7
19:40 1015 29.97 844 24.92 13.6 56.5 37 -0.7 30.8
19:45 1015 29.97 844 24.92 13.5 56.3 38 -0.6 31
19:50 1015 29.97 844 24.92 13.4 56.2 37 -1 30.3
19:55 1015 29.97 844 24.92 13.4 56.2 37 -0.7 30.7
20:00 1015 29.97 844 24.92 13.4 56.2 38 -0.6 30.9
20:05 1015 29.97 844 24.92 13.4 56 39 -0.2 31.6
20:10 1015 29.97 844 24.92 13.2 55.8 41 0.3 32.5
20:15 1015 29.97 844 24.92 13.1 55.6 41 0.2 32.4
20:20 1015 29.97 845 24.95 13 55.3 43 0.6 33.1
20:25 1015 29.97 845 24.95 12.8 55 44 0.8 33.4
20:30 1016 30 845 24.95 12.6 54.7 45 1.1 34.1
20:35 1016 30 845 24.95 12.5 54.4 46 1.3 34.4
20:40 1016 30 845 24.95 12.4 54.2 47 1.5 34.7
20:45 1016 30 845 24.95 12.3 54.1 48 1.6 34.8
20:50 1016 30 845 24.95 12.2 54 48 1.5 34.7
20:55 1016 30 845 24.95 12.2 53.9 47 1.3 34.4
21:00 1016 30 845 24.95 12.1 53.7 47 1.1 34
21:05 1016 30 845 24.95 12 53.6 46 0.7 33.3
21:10 1016 30 845 24.95 12 53.6 46 0.8 33.5
21:15 1016 30 845 24.95 12 53.6 45 0.6 33.1
21:20 1016 30 845 24.95 12 53.5 46 0.8 33.4
21:25 1016 30 845 24.95 11.9 53.4 46 0.7 33.2
21:30 1016 30 845 24.95 11.9 53.5 46 0.7 33.2
21:35 1016 30 845 24.95 11.9 53.4 46 0.6 33
21:40 1016 30 845 24.95 11.8 53.3 46 0.7 33.2
21:45 1016 30 845 24.95 11.8 53.2 47 1 33.8
21:50 1016 30 845 24.95 11.7 53.1 49 1.4 34.4
21:55 1016 30 846 24.98 11.6 52.9 49 1.3 34.3
22:00 1016 30 846 24.98 11.5 52.8 49 1.2 34.1
22:05 1016 30 846 24.98 11.5 52.6 49 1.2 34.2
22:10 1016 30 846 24.98 11.5 52.6 49 1.3 34.3
22:15 1017 30.03 846 24.98 11.4 52.4 49 1 33.7
22:20 1017 30.03 846 24.98 11.3 52.3 50 1.2 34.2
22:25 1017 30.03 846 24.98 11.3 52.4 50 1.3 34.4
22:30 1017 30.03 846 24.98 11.3 52.3 50 1.3 34.3
22:35 1017 30.03 846 24.98 11.3 52.3 50 1.2 34.1
22:40 1017 30.03 846 24.98 11.3 52.4 51 1.5 34.8
22:45 1017 30.03 846 24.98 11.3 52.4 55 2.7 36.9
22:50 1017 30.03 846 24.98 10.7 51.3 59 3.2 37.7
22:55 1017 30.03 846 24.98 10.5 50.8 59 2.9 37.2
23:00 1017 30.03 846 24.98 10.5 50.9 59 2.8 37
23:05 1017 30.03 846 24.98 10.5 51 55 1.9 35.5
23:10 1017 30.03 846 24.98 10.9 51.6 50 0.8 33.5
23:15 1017 30.03 846 24.98 11.3 52.3 47 0.5 32.9
23:20 1017 30.03 846 24.98 11.5 52.7 47 0.6 33.1
23:25 1017 30.03 846 24.98 11.5 52.7 48 0.9 33.5
23:30 1017 30.03 846 24.98 11.4 52.6 49 1.1 33.9
23:35 1017 30.03 846 24.98 11.4 52.4 49 1 33.9
23:40 1017 30.03 846 24.98 11.3 52.4 49 1 33.8
23:45 1017 30.03 846 24.98 11.3 52.3 49 1.1 34
23:50 1017 30.03 846 24.98 11.2 52.2 50 1.3 34.4
23:55 1017 30.03 846 24.98 11.1 52 51 1.4 34.6
24:00 1017 30.03 846 24.98 11.1 52 51 1.5 34.7